Latest Weather Observations for Yunta

IDS60801

Issued at 1:05 pm CDT Thursday 27 November 2014 (issued every 30 minutes, with the page automatically refreshed every 10 minutes)

About weather observations | Map of weather stations | Latest weather observations for SA | Other Formats
Station Details ID: 020062 Name: YUNTA AIRSTRIP Lat: -32.57 Lon: 139.56 Height: 300.0 m
Data from the previous 72 hours. | See also: Recent months at Yunta
Date/Time
CDT
Temp
°C
App
Temp
°C
Dew
Point
Rel
Hum
%
Delta-T
°C
Wind Press
QNH
hPa
Press
MSL
hPa
Rain
since 9 am
mm
Dir
 
Spd
km/h
Gust
km/h
Spd
kts
Gust
kts
27/01:00pm 25.6 21.7 5.2 27 10.5 SE 15 26 8 14 1020.5 1019.5 0.0
27/12:30pm 25.4 21.7 6.1 29 10.1 SE 15 24 8 13 1020.9 1019.9 0.0
27/12:00pm 23.7 19.4 5.1 30 9.4 SE 17 26 9 14 1021.2 1020.2 0.0
27/11:30am 23.3 19.8 7.0 35 8.5 ESE 15 22 8 12 1021.7 1020.7 0.0
27/11:00am 22.5 18.7 7.5 38 7.9 SSE 17 24 9 13 1021.8 1020.8 0.0
27/10:30am 21.5 18.7 8.4 43 7.0 SE 13 20 7 11 1022.2 1021.2 0.0
27/10:00am 20.4 17.6 8.4 46 6.4 SSE 13 22 7 12 1022.3 1021.3 0.0
27/09:30am 18.9 16.1 8.6 51 5.4 SSE 13 22 7 12 1022.5 1021.4 0.0
27/09:00am 18.3 15.3 9.1 55 4.9 SE 15 24 8 13 1022.7 1021.6 0.0
27/08:30am 17.2 13.8 9.1 59 4.2 SSE 17 24 9 13 1022.7 1021.6 0.0
27/08:00am 16.6 13.7 9.8 64 3.6 SSE 15 22 8 12 1022.7 1021.6 0.0
27/07:30am 14.8 12.2 9.2 69 2.9 S 13 17 7 9 1022.7 1021.6 0.0
27/07:00am 13.5 11.2 9.0 74 2.3 SSW 11 15 6 8 1022.6 1021.5 0.0
27/06:30am 12.0 10.4 8.1 77 1.9 SW 6 9 3 5 1022.3 1021.3 0.0
27/06:00am 10.6 8.6 6.4 75 2.0 SSW 6 6 3 3 1022.0 1021.0 0.0
27/05:30am 12.2 10.2 7.3 72 2.4 SSW 7 11 4 6 1021.9 1020.9 0.0
27/05:00am 13.1 11.0 8.2 72 2.5 S 9 11 5 6 1021.5 1020.5 0.0
27/04:30am 13.8 11.6 8.0 68 2.9 S 9 13 5 7 1021.5 1020.5 0.0
27/04:00am 13.8 11.4 7.1 64 3.3 S 9 13 5 7 1021.3 1020.3 0.0
27/03:30am 14.2 12.1 6.8 61 3.6 SSW 7 9 4 5 1021.1 1020.1 0.0
27/03:00am 14.7 12.5 6.0 56 4.2 SW 7 9 4 5 1020.9 1019.9 0.0
27/02:30am 15.6 13.3 5.8 52 4.8 SSW 7 11 4 6 1021.1 1020.1 0.0
27/02:00am 16.7 13.5 5.3 47 5.5 S 11 17 6 9 1021.2 1020.2 0.0
27/01:30am 17.3 13.7 3.2 39 6.6 S 11 15 6 8 1021.4 1020.4 0.0
27/01:00am 18.0 14.4 2.7 36 7.1 S 11 17 6 9 1021.4 1020.4 0.0
27/12:30am 19.3 14.4 2.2 32 7.9 SSE 17 24 9 13 1021.2 1020.2 0.0
27/12:00am 19.3 15.0 1.3 30 8.2 SSE 13 19 7 10 1021.0 1020.0 0.0
 
Date/Time
CDT
Temp
°C
App
Temp
°C
Dew
Point
Rel
Hum
%
Delta-T
°C
Wind Press
QNH
hPa
Press
MSL
hPa
Rain
since 9 am
mm
Dir
 
Spd
km/h
Gust
km/h
Spd
kts
Gust
kts
26/11:30pm 20.3 15.6 1.2 28 8.8 SSE 15 22 8 12 1021.0 1020.0 0.0
26/11:00pm 20.3 15.6 0.7 27 8.9 SSE 15 20 8 11 1020.8 1019.8 0.0
26/10:30pm 21.0 16.2 0.2 25 9.4 SSE 15 20 8 11 1020.6 1019.6 0.0
26/10:00pm 21.5 16.7 0.1 24 9.7 SSE 15 24 8 13 1020.4 1019.4 0.0
26/09:30pm 22.1 18.1 0.6 24 9.9 SE 11 17 6 9 1019.9 1018.8 0.0
26/09:00pm 22.1 17.8 -1.9 20 10.5 SE 11 17 6 9 1019.6 1018.5 0.0
26/08:30pm 22.7 18.0 -2.1 19 10.9 SSE 13 22 7 12 1019.4 1018.3 0.0
26/08:00pm 23.7 17.8 -2.0 18 11.4 SSE 19 26 10 14 1019.2 1018.1 0.0
26/07:30pm 24.7 18.7 -1.2 18 11.8 SSE 20 28 11 15 1019.1 1018.0 0.0
26/07:00pm 25.3 19.5 -1.5 17 12.2 SSE 19 26 10 14 1018.8 1017.8 0.0
26/06:30pm 26.2 20.3 -0.8 17 12.5 S 20 28 11 15 1018.4 1017.4 0.0
26/06:00pm 26.6 20.8 -1.3 16 12.9 SSE 19 28 10 15 1018.4 1017.4 0.0
26/05:30pm 26.5 20.8 -0.5 17 12.6 SE 19 33 10 18 1018.3 1017.3 0.0
26/05:00pm 27.1 21.6 0.8 18 12.7 S 19 26 10 14 1018.5 1017.5 0.0
26/04:30pm 26.9 23.2 2.1 20 12.2 SSE 11 28 6 15 1018.6 1017.6 0.0
26/04:00pm 26.5 21.7 0.3 18 12.4 S 15 24 8 13 1019.1 1018.0 0.0
26/03:30pm 27.1 22.0 0.8 18 12.6 SSE 17 32 9 17 1019.3 1018.2 0.0
26/03:00pm 26.5 21.2 1.7 20 12.0 S 19 30 10 16 1019.4 1018.3 0.0
26/02:30pm 25.0 20.4 1.8 22 11.2 S 15 30 8 16 1020.0 1018.9 0.0
26/02:00pm 25.0 21.3 2.4 23 11.0 S 11 19 6 10 1020.4 1019.4 0.0
26/01:30pm 24.8 21.2 2.9 24 10.7 S 11 28 6 15 1020.7 1019.7 0.0
26/01:00pm 23.3 20.5 2.2 25 10.1 S 6 11 3 6 1021.2 1020.2 0.0
26/12:30pm 22.8 19.9 2.8 27 9.7 S 7 13 4 7 1021.5 1020.5 0.0
26/12:00pm 22.1 18.9 3.3 29 9.1 S 9 15 5 8 1021.9 1020.9 0.0
26/11:30am 21.1 16.8 3.3 31 8.6 ESE 15 30 8 16 1022.2 1021.2 0.0
26/11:00am 20.6 16.5 4.2 34 8.0 SSE 15 24 8 13 1022.2 1021.2 0.0
26/10:30am 19.5 15.4 4.4 37 7.3 SE 15 20 8 11 1022.5 1021.4 0.0
26/10:00am 17.8 13.7 4.4 41 6.5 SSE 15 24 8 13 1022.6 1021.5 0.0
26/09:30am 16.7 11.9 4.4 44 5.9 SSE 19 24 10 13 1022.7 1021.6 0.0
26/09:00am 16.5 12.1 4.9 46 5.6 SSE 17 24 9 13 1022.6 1021.5 0.0
26/08:30am 15.6 10.7 4.9 49 5.1 SE 20 26 11 14 1022.3 1021.3 0.0
26/08:00am 14.7 9.8 5.0 52 4.6 SSE 20 28 11 15 1022.2 1021.2 0.0
26/07:30am 13.7 10.2 5.3 57 4.0 SSE 13 24 7 13 1021.9 1020.9 0.0
26/07:00am 12.7 9.6 5.6 62 3.4 S 11 17 6 9 1021.8 1020.8 0.0
26/06:30am 11.6 8.9 5.7 67 2.8 S 9 13 5 7 1021.7 1020.7 0.0
26/06:00am 11.1 8.4 5.6 69 2.6 S 9 15 5 8 1021.4 1020.4 0.0
26/05:30am 11.5 8.4 5.6 67 2.8 S 11 15 6 8 1021.2 1020.2 0.0
26/05:00am 11.8 9.1 5.7 66 2.9 S 9 13 5 7 1021.0 1020.0 0.0
26/04:30am 12.2 9.2 5.8 65 3.0 S 11 17 6 9 1020.9 1019.9 0.0
26/04:00am 12.6 9.2 5.8 63 3.2 S 13 17 7 9 1021.0 1020.0 0.0
26/03:30am 13.2 9.4 5.6 60 3.6 S 15 24 8 13 1020.8 1019.8 0.0
26/03:00am 13.4 10.0 5.8 60 3.6 S 13 19 7 10 1020.6 1019.6 0.0
26/02:30am 14.0 10.2 5.6 57 4.0 S 15 20 8 11 1020.6 1019.6 0.0
26/02:00am 14.7 11.3 5.8 55 4.3 S 13 19 7 10 1020.5 1019.5 0.0
26/01:30am 15.4 11.2 5.6 52 4.7 S 17 22 9 12 1020.6 1019.6 0.0
26/01:00am 16.3 11.5 5.6 49 5.2 S 20 28 11 15 1020.9 1019.9 0.0
26/12:30am 17.1 13.1 3.1 39 6.5 S 13 22 7 12 1020.9 1019.9 0.0
26/12:00am 17.8 12.7 0.9 32 7.6 S 17 28 9 15 1020.9 1019.9 0.0
 
Date/Time
CDT
Temp
°C
App
Temp
°C
Dew
Point
Rel
Hum
%
Delta-T
°C
Wind Press
QNH
hPa
Press
MSL
hPa
Rain
since 9 am
mm
Dir
 
Spd
km/h
Gust
km/h
Spd
kts
Gust
kts
25/11:30pm 18.8 14.2 -1.1 26 8.6 SSE 13 19 7 10 1020.5 1019.5 0.0
25/11:00pm 20.1 14.8 -0.5 25 9.2 SE 17 26 9 14 1020.2 1019.2 0.0
25/10:30pm 20.1 15.1 -1.1 24 9.3 SSE 15 19 8 10 1020.2 1019.2 0.0
25/10:00pm 20.4 16.1 -1.4 23 9.5 SSE 11 15 6 8 1020.3 1019.3 0.0
25/09:30pm 20.7 16.4 -1.8 22 9.8 SE 11 17 6 9 1020.2 1019.2 0.0
25/09:00pm 21.4 16.8 -1.2 22 10.0 SE 13 19 7 10 1019.8 1018.7 0.0
25/08:30pm 21.6 17.3 -1.6 21 10.2 SE 11 19 6 10 1019.6 1018.5 0.0
25/08:00pm 22.3 18.3 -2.4 19 10.8 SSE 9 15 5 8 1019.5 1018.4 0.0
25/07:30pm 23.8 19.7 -2.7 17 11.6 SSE 9 17 5 9 1019.2 1018.1 0.0
25/07:00pm 24.5 19.3 -2.9 16 12.1 S 15 20 8 11 1019.0 1017.9 0.0
25/06:30pm 25.0 20.1 -3.4 15 12.4 SSE 13 26 7 14 1018.5 1017.5 0.0
25/06:00pm 25.3 20.8 -3.2 15 12.5 SE 11 20 6 11 1018.3 1017.3 0.0
25/05:30pm 25.3 20.7 -4.1 14 12.7 S 11 20 6 11 1018.3 1017.3 0.0
25/05:00pm 25.0 20.8 -4.3 14 12.6 S 9 19 5 10 1018.5 1017.5 0.0
25/04:30pm 24.5 20.6 -4.7 14 12.4 S 7 15 4 8 1018.6 1017.6 0.0
25/04:00pm 24.4 19.4 -3.9 15 12.2 S 13 20 7 11 1019.0 1017.9 0.0
25/03:30pm 24.0 20.4 -3.3 16 11.9 SSE 6 13 3 7 1019.4 1018.3 0.0
25/03:00pm 24.0 19.6 -2.5 17 11.7 S 11 22 6 12 1019.8 1018.7 0.0
25/02:30pm 23.4 19.8 -2.2 18 11.3 S 7 19 4 10 1020.1 1019.1 0.0
25/02:00pm 22.8 18.5 -1.3 20 10.8 SE 11 20 6 11 1020.3 1019.3 0.0
25/01:30pm 22.3 17.4 -0.4 22 10.3 S 15 28 8 15 1020.5 1019.5 0.0
25/01:00pm 21.6 16.0 0.2 24 9.8 SSE 19 26 10 14 1020.7 1019.7 0.0
25/12:30pm 20.3 14.7 0.2 26 9.0 SSE 19 30 10 16 1021.0 1020.0 0.0
25/12:00pm 20.7 15.2 0.5 26 9.2 SSE 19 32 10 17 1021.3 1020.3 0.0
25/11:30am 19.7 15.1 1.7 30 8.3 SSE 15 20 8 11 1021.4 1020.4 0.0
25/11:00am 18.7 13.7 1.2 31 8.0 SSE 17 24 9 13 1021.6 1020.6 0.0
25/10:30am 17.8 12.4 2.2 35 7.2 S 20 30 11 16 1021.7 1020.7 0.0
25/10:00am 16.5 11.6 2.2 38 6.5 SSE 17 32 9 17 1022.0 1021.0 0.0
25/09:30am 16.5 11.4 3.2 41 6.2 SSE 19 32 10 17 1022.1 1021.1 0.0
25/09:00am 15.3 10.5 4.7 49 5.0 SSE 19 28 10 15 1022.1 1021.1 1.4
25/08:30am 14.4 9.7 5.2 54 4.4 SSE 19 24 10 13 1022.0 1021.0 1.4
25/08:00am 13.6 9.7 5.3 57 3.9 SSE 15 20 8 11 1021.9 1020.9 1.4
25/07:30am 13.0 9.4 4.9 58 3.8 SE 13 19 7 10 1021.7 1020.7 1.4
25/07:00am 12.2 9.4 5.1 62 3.3 SE 9 17 5 9 1021.4 1020.4 1.4
25/06:30am 8.7 7.4 3.9 72 2.1 CALM 0 0 0 0 1021.2 1020.2 1.4
25/06:00am 9.5 6.9 4.3 70 2.3 SE 7 11 4 6 1020.9 1019.9 1.4
25/05:30am 9.7 7.1 4.3 69 2.4 SSE 7 11 4 6 1020.5 1019.5 1.4
25/05:00am 10.1 7.1 4.3 67 2.6 SSE 9 13 5 7 1020.2 1019.2 1.4
25/04:30am 10.5 7.6 4.4 66 2.8 SSE 9 13 5 7 1020.0 1018.9 1.4
25/04:00am 11.5 7.9 4.9 64 3.1 SSE 13 19 7 10 1019.8 1018.7 1.4
25/03:30am 11.9 7.6 5.3 64 3.1 SSE 17 24 9 13 1019.5 1018.4 1.4
25/03:00am 12.2 8.5 6.3 67 2.8 SSE 15 22 8 12 1019.3 1018.2 1.4
25/02:30am 12.4 9.1 6.2 66 3.0 S 13 19 7 10 1019.4 1018.3 1.4
25/02:00am 12.7 8.5 5.6 62 3.4 S 17 20 9 11 1019.3 1018.2 1.4
25/01:30am 13.2 8.9 5.1 58 3.8 S 17 22 9 12 1019.3 1018.2 1.4
25/01:00am 13.6 8.9 5.3 57 3.9 S 19 24 10 13 1019.2 1018.1 1.4
25/12:30am 14.1 10.1 4.7 53 4.4 S 15 22 8 12 1019.3 1018.2 1.4
25/12:00am 14.9 9.9 4.6 50 4.9 S 20 28 11 15 1019.1 1018.0 1.4
 
Date/Time
CDT
Temp
°C
App
Temp
°C
Dew
Point
Rel
Hum
%
Delta-T
°C
Wind Press
QNH
hPa
Press
MSL
hPa
Rain
since 9 am
mm
Dir
 
Spd
km/h
Gust
km/h
Spd
kts
Gust
kts
24/11:30pm 15.4 9.9 3.9 46 5.4 SSW 22 32 12 17 1018.5 1017.5 1.4
24/11:00pm 15.9 10.3 3.4 43 5.8 S 22 33 12 18 1018.3 1017.3 1.4
24/10:30pm 16.7 10.7 3.4 41 6.2 S 24 35 13 19 1017.9 1016.9 1.4
24/10:00pm 17.4 10.6 3.3 39 6.6 S 28 37 15 20 1017.3 1016.3 1.4
24/09:30pm 17.8 11.2 -3.0 24 8.6 SSW 22 32 12 17 1016.6 1015.5 1.4
24/09:00pm 18.7 11.5 -1.7 25 8.7 SSW 26 35 14 19 1016.0 1014.9 1.4
24/08:30pm 19.3 12.4 0.4 28 8.5 SW 26 37 14 20 1015.6 1014.5 1.4
24/08:00pm 20.5 13.1 4.1 34 8.0 SSW 32 44 17 24 1015.0 1014.0 1.4
24/07:30pm 22.1 14.4 5.5 34 8.4 SSW 35 48 19 26 1014.0 1012.9 1.4
24/07:00pm 23.8 16.3 4.7 29 9.6 SSW 33 46 18 25 1013.2 1012.1 1.4
24/06:30pm 24.7 16.8 4.5 27 10.2 SW 35 50 19 27 1012.5 1011.4 1.4
24/06:00pm 26.0 17.8 4.5 25 11.0 SSW 37 50 20 27 1011.8 1010.8 1.4
24/05:30pm 27.0 18.5 5.3 25 11.3 SW 39 54 21 29 1011.3 1010.3 1.4
24/05:00pm 27.8 20.0 4.8 23 11.9 SW 35 46 19 25 1011.0 1009.9 1.4
24/04:30pm 26.7 20.1 7.7 30 10.3 SW 32 41 17 22 1010.8 1009.7 1.4
24/04:00pm 28.7 22.9 7.9 27 11.4 SW 28 43 15 23 1011.0 1009.9 1.4
24/03:30pm 28.0 22.7 8.3 29 10.9 WSW 26 41 14 22 1011.1 1010.0 1.4
24/03:00pm 27.6 22.6 9.4 32 10.2 SW 26 37 14 20 1011.0 1009.9 1.2
24/02:30pm 25.9 22.5 13.7 47 7.3 WSW 24 35 13 19 1011.3 1010.3 1.2
24/02:00pm 25.2 23.2 15.5 55 5.9 WSW 20 33 11 18 1011.2 1010.1 1.2
24/01:30pm 22.7 21.3 16.5 68 3.8 WSW 19 28 10 15 1011.0 1009.9 1.2

Other Formats:

Comma delimited format used in spreadsheet applications
http://www.bom.gov.au/fwo/IDS60801/IDS60801.94684.axf

JavaScript Object Notation format (JSON) in row-major order
http://www.bom.gov.au/fwo/IDS60801/IDS60801.94684.json